ROMMA est une association bénévole à but non lucratif. Votre soutien est indispensable : ADHERER à ROMMA ou FAIRE un DON

L'Isle-sur-la-Sorgue - (84, Vaucluse)

Sillon Rhodanien (65 m)   Longitude: 5°02'   Latitude: 43°55' Station partenaire n°71
 

Détail journalier du     <<     >>

Température Precipitation Humidité Pression Vent Dir Rafale Dir. rafale Ensol.
Heure (°C) (mm) (%) (hPa) (km/h) (km/h) (min)
01:00 16.708210224SSE13SSE0
02:00 17.008110215SE11SSE0
03:00 17.208010215ESE11SE0
04:00 18.107710216ESE18ESE0
05:00 17.707610215SE13SSE0
06:00 15.608510211NE11ESE0
07:00 17.807110212NNE13ESE0
08:00 16.608110212ESE15ESE0
09:00 15.408810212O10ESE0
10:00 16.408610211NNE5ESE0
11:00 21.906410226SE24SE60
12:00 23.5059102211SE24SSE60
13:00 24.605810229SSE23SSE60
14:00 25.105510217SSE23SSE60
15:00 25.705510206SSE18S60
16:00 26.005710206SSE19SSE60
17:00 24.606410199S21S60
18:00 23.707010198S21SSE30
19:00 21.707210194S16SSO0
20:00 19.907810192S15S0
21:00 19.807510202SSE13SSE0
22:00 20.507510207ESE23ESE0
23:00 18.907910216ESE24SE0
minuit 17.308410211SE10ESE0

Graphique du 13-10-2019

 

Serveur OMMA